Time;durP1;ratioP1;P1;durP2;ratioP2;P2;SDS_P1;SDS_P2;PMS_P1;PMS_P2;Temp;Humidity;BMP_temperature;BMP_pressure;BME280_temperature;BME280_humidity;BME280_pressure;Samples;Min_cycle;Max_cycle;Signal;HPM_P1;HPM_P2
2024/01/30 00:02:19;;;;;;;16.07;9.63;;;0.70;99.90;;;;;;4987199;28;20205;-68
2024/01/30 00:04:46;;;;;;;13.67;9.60;;;0.60;99.90;;;;;;4981419;28;20203;-66
2024/01/30 00:07:13;;;;;;;12.90;8.63;;;0.70;99.90;;;;;;4986693;28;20704;-66
2024/01/30 00:09:40;;;;;;;23.33;11.33;;;0.70;99.90;;;;;;4988718;28;20299;-66
2024/01/30 00:12:08;;;;;;;12.77;9.60;;;;;;;;;;4984191;28;20252;-66
2024/01/30 00:14:36;;;;;;;18.73;9.97;;;;;;;;;;4987796;28;20279;-66
2024/01/30 00:17:04;;;;;;;31.13;11.67;;;0.70;99.90;;;;;;4990269;28;20224;-66
2024/01/30 00:19:31;;;;;;;17.87;10.80;;;0.70;99.90;;;;;;4990067;28;20480;-66
2024/01/30 00:21:58;;;;;;;27.30;11.13;;;0.70;99.90;;;;;;4984921;28;20296;-66
2024/01/30 00:24:25;;;;;;;18.57;10.00;;;0.70;99.90;;;;;;4988553;28;20196;-67
2024/01/30 00:26:53;;;;;;;21.67;9.13;;;0.60;99.90;;;;;;4991116;28;20230;-66
2024/01/30 00:29:22;;;;;;;12.93;9.17;;;0.80;99.90;;;;;;4993021;28;20308;-66
2024/01/30 00:31:50;;;;;;;20.73;9.47;;;0.60;99.90;;;;;;4992635;28;20687;-66
2024/01/30 00:34:17;;;;;;;9.97;8.13;;;0.60;99.90;;;;;;4986288;28;20214;-66
2024/01/30 00:36:44;;;;;;;11.00;8.67;;;0.60;99.90;;;;;;4990030;28;20663;-66
2024/01/30 00:39:11;;;;;;;12.27;8.73;;;0.60;99.90;;;;;;4985307;28;20219;-66
2024/01/30 00:41:38;;;;;;;16.50;9.03;;;0.70;99.90;;;;;;4994492;28;20249;-66
2024/01/30 00:44:05;;;;;;;19.63;8.87;;;0.70;99.90;;;;;;4986674;28;20214;-66
2024/01/30 00:46:32;;;;;;;9.80;8.70;;;0.70;99.90;;;;;;4990009;28;20257;-67
2024/01/30 00:49:01;;;;;;;11.83;9.37;;;0.50;99.90;;;;;;4992564;28;20201;-66
2024/01/30 00:51:29;;;;;;;14.27;9.03;;;0.50;99.90;;;;;;4989053;28;20249;-67
2024/01/30 00:53:56;;;;;;;13.30;9.03;;;0.60;99.90;;;;;;4991389;28;20735;-66
2024/01/30 00:56:24;;;;;;;15.57;9.97;;;0.60;99.90;;;;;;4988268;28;20661;-66
2024/01/30 00:58:51;;;;;;;10.83;8.80;;;0.80;99.90;;;;;;4988963;28;20259;-66
2024/01/30 01:01:18;;;;;;;14.07;9.27;;;0.80;99.90;;;;;;4990291;28;20203;-66
2024/01/30 01:03:45;;;;;;;10.80;8.47;;;0.80;99.90;;;;;;4988377;28;20792;-66
2024/01/30 01:06:14;;;;;;;19.10;9.33;;;0.80;99.90;;;;;;4991073;28;20782;-66
2024/01/30 01:08:41;;;;;;;10.90;8.33;;;0.70;99.90;;;;;;4990843;28;20577;-67
2024/01/30 01:11:08;;;;;;;23.37;10.10;;;0.70;99.90;;;;;;4986442;28;20206;-66
2024/01/30 01:13:35;;;;;;;15.50;8.93;;;0.70;99.90;;;;;;4988378;28;20212;-66
2024/01/30 01:16:02;;;;;;;10.67;8.60;;;0.70;99.90;;;;;;4988446;28;20231;-66
2024/01/30 01:18:29;;;;;;;10.83;8.43;;;0.70;99.90;;;;;;4986083;28;20586;-66
2024/01/30 01:20:56;;;;;;;9.93;7.83;;;0.70;99.90;;;;;;4983765;28;20203;-66
2024/01/30 01:23:24;;;;;;;11.23;7.97;;;0.70;99.90;;;;;;4985189;28;20677;-67
2024/01/30 01:25:51;;;;;;;11.57;8.90;;;0.60;99.90;;;;;;4986404;28;20223;-66
2024/01/30 01:28:18;;;;;;;39.13;9.80;;;0.60;99.90;;;;;;4991028;28;20234;-66
2024/01/30 01:30:46;;;;;;;29.37;9.27;;;0.70;99.90;;;;;;4978862;28;20203;-66
2024/01/30 01:33:14;;;;;;;10.67;8.23;;;0.80;99.90;;;;;;4988839;28;20229;-66
2024/01/30 01:35:41;;;;;;;20.07;8.27;;;0.60;99.90;;;;;;4985774;28;20205;-66
2024/01/30 01:38:08;;;;;;;11.60;9.10;;;0.70;99.90;;;;;;4985932;28;20225;-66
2024/01/30 01:40:36;;;;;;;16.17;9.63;;;0.70;99.90;;;;;;4985024;28;20665;-66
2024/01/30 01:43:05;;;;;;;10.10;8.37;;;0.70;99.90;;;;;;4991321;28;20213;-66
2024/01/30 01:45:32;;;;;;;12.07;9.20;;;0.70;99.90;;;;;;4984959;28;20197;-66
2024/01/30 01:47:59;;;;;;;15.77;9.03;;;;;;;;;;4992249;28;20225;-66
2024/01/30 01:50:26;;;;;;;11.33;8.43;;;0.60;99.90;;;;;;4989442;28;20197;-66
2024/01/30 01:52:54;;;;;;;45.70;10.20;;;0.70;99.90;;;;;;4989138;28;20268;-66
2024/01/30 01:55:24;;;;;;;13.07;8.53;;;0.70;99.90;;;;;;4984620;28;20194;-66
2024/01/30 01:57:54;;;;;;;18.40;10.07;;;0.60;99.90;;;;;;4985302;28;20214;-67
2024/01/30 02:00:21;;;;;;;30.13;10.20;;;0.60;99.90;;;;;;4994307;28;20261;-66
2024/01/30 02:02:48;;;;;;;15.67;8.77;;;0.60;99.90;;;;;;4991704;28;20276;-66
2024/01/30 02:05:16;;;;;;;21.87;8.93;;;0.60;99.90;;;;;;4993390;28;20205;-66
2024/01/30 02:07:44;;;;;;;11.63;8.83;;;0.50;99.90;;;;;;4987556;28;20662;-67
2024/01/30 02:10:11;;;;;;;10.93;8.83;;;0.50;99.90;;;;;;4977258;28;20668;-67
2024/01/30 02:12:38;;;;;;;16.70;12.77;;;0.40;99.90;;;;;;4974020;28;20206;-66
2024/01/30 02:15:07;;;;;;;33.67;12.93;;;0.40;99.90;;;;;;4981563;28;20728;-66
2024/01/30 02:17:34;;;;;;;29.30;12.63;;;0.30;99.90;;;;;;4994095;28;20320;-66
2024/01/30 02:20:03;;;;;;;26.10;11.27;;;0.40;99.90;;;;;;4984789;28;20210;-66
2024/01/30 02:22:33;;;;;;;25.73;10.60;;;0.40;99.90;;;;;;4987603;28;20208;-66
2024/01/30 02:25:00;;;;;;;30.70;10.60;;;0.50;99.90;;;;;;4993720;28;20204;-67
2024/01/30 02:27:27;;;;;;;12.53;9.33;;;0.40;99.90;;;;;;4994146;28;20234;-66
2024/01/30 02:29:54;;;;;;;18.07;10.57;;;0.30;99.90;;;;;;4987892;28;20625;-66
2024/01/30 02:32:21;;;;;;;12.50;8.30;;;0.40;99.90;;;;;;4993383;28;20201;-66
2024/01/30 02:34:48;;;;;;;24.53;8.40;;;0.30;99.90;;;;;;4991449;28;20211;-66
2024/01/30 02:37:18;;;;;;;11.50;7.97;;;0.20;99.90;;;;;;4989993;28;20775;-67
2024/01/30 02:39:47;;;;;;;9.30;8.23;;;0.20;99.90;;;;;;4990468;28;20629;-66
2024/01/30 02:42:14;;;;;;;13.80;8.23;;;0.20;99.90;;;;;;4993134;28;20207;-66
2024/01/30 02:44:40;;;;;;;31.80;10.37;;;0.10;99.90;;;;;;4977391;28;20677;-66
2024/01/30 02:47:07;;;;;;;9.57;7.80;;;0.30;99.90;;;;;;4990262;28;20230;-66
2024/01/30 02:49:34;;;;;;;15.93;7.77;;;0.20;99.90;;;;;;4987187;28;20213;-66
2024/01/30 02:52:01;;;;;;;8.70;7.80;;;0.20;99.90;;;;;;4992640;28;20345;-67
2024/01/30 02:54:30;;;;;;;15.30;8.33;;;0.20;99.90;;;;;;4991635;28;20256;-67
2024/01/30 02:56:58;;;;;;;16.83;8.80;;;0.30;99.90;;;;;;4985354;28;20217;-66
2024/01/30 02:59:25;;;;;;;12.27;7.80;;;0.20;99.90;;;;;;4993984;28;20209;-67
2024/01/30 03:01:52;;;;;;;11.70;7.83;;;0.20;99.90;;;;;;4992083;28;20272;-67
2024/01/30 03:04:19;;;;;;;12.23;7.93;;;0.40;99.90;;;;;;4992129;28;20205;-66
2024/01/30 03:06:47;;;;;;;23.53;9.13;;;0.40;99.90;;;;;;4985289;28;20226;-67
2024/01/30 03:09:15;;;;;;;33.97;10.13;;;0.30;99.90;;;;;;4983180;28;20289;-66
2024/01/30 03:11:42;;;;;;;13.20;8.80;;;0.30;99.90;;;;;;4987897;28;20194;-67
2024/01/30 03:14:11;;;;;;;11.97;9.10;;;0.30;99.90;;;;;;4976237;28;20678;-66
2024/01/30 03:16:38;;;;;;;16.83;8.77;;;0.30;99.90;;;;;;4973458;28;20306;-66
2024/01/30 03:19:07;;;;;;;13.33;8.73;;;0.30;99.90;;;;;;4974426;28;20241;-66
2024/01/30 03:21:34;;;;;;;33.70;9.57;;;0.30;99.90;;;;;;4992133;28;20690;-66
2024/01/30 03:24:01;;;;;;;28.27;9.87;;;0.20;99.90;;;;;;4992815;28;20717;-66
2024/01/30 03:26:28;;;;;;;9.87;7.83;;;0.30;99.90;;;;;;4985589;28;20225;-66
2024/01/30 03:28:55;;;;;;;10.63;8.67;;;0.30;99.90;;;;;;4983931;28;20662;-66
2024/01/30 03:31:23;;;;;;;37.67;9.17;;;0.20;99.90;;;;;;4992689;28;20201;-66
2024/01/30 03:33:50;;;;;;;20.60;8.73;;;-0.10;99.90;;;;;;4992176;28;20200;-66
2024/01/30 03:36:17;;;;;;;35.63;9.30;;;0.10;99.90;;;;;;4992804;28;20201;-66
2024/01/30 03:38:44;;;;;;;19.53;8.03;;;0.10;99.90;;;;;;4992543;28;20228;-66
2024/01/30 03:41:11;;;;;;;22.10;8.47;;;0.10;99.90;;;;;;4991945;28;20201;-66
2024/01/30 03:43:38;;;;;;;9.70;7.63;;;0.10;99.90;;;;;;4991154;28;20251;-66
2024/01/30 03:46:05;;;;;;;8.03;7.17;;;0.10;99.90;;;;;;4984441;28;20201;-65
2024/01/30 03:48:34;;;;;;;19.37;7.17;;;0.10;99.90;;;;;;4992171;28;20230;-66
2024/01/30 03:51:01;;;;;;;33.50;8.13;;;0.10;99.90;;;;;;4992581;28;20205;-66
2024/01/30 03:53:27;;;;;;;55.53;10.10;;;0.00;99.90;;;;;;4991646;28;20631;-66
2024/01/30 03:55:54;;;;;;;9.20;7.43;;;0.00;99.90;;;;;;4990329;28;20205;-66
2024/01/30 03:58:21;;;;;;;11.10;9.00;;;0.10;99.90;;;;;;4991173;28;20229;-66
2024/01/30 04:00:48;;;;;;;19.80;8.67;;;0.00;99.90;;;;;;4984317;28;20249;-65
2024/01/30 04:03:16;;;;;;;31.77;11.20;;;-0.10;99.90;;;;;;4984121;28;20258;-66
2024/01/30 04:05:44;;;;;;;15.37;9.47;;;-0.30;99.90;;;;;;4992212;28;20694;-66
2024/01/30 04:08:11;;;;;;;20.97;9.57;;;-0.40;99.90;;;;;;4989015;28;20239;-66
2024/01/30 04:10:38;;;;;;;43.43;12.07;;;-0.30;99.90;;;;;;4991762;28;20677;-65
2024/01/30 04:13:05;;;;;;;34.87;10.23;;;-0.10;99.90;;;;;;4981853;28;20682;-66
2024/01/30 04:15:32;;;;;;;14.27;9.33;;;-0.10;99.90;;;;;;4984399;28;20243;-67
2024/01/30 04:17:59;;;;;;;35.90;10.40;;;0.00;99.90;;;;;;4992208;28;20319;-67
2024/01/30 04:20:26;;;;;;;48.83;10.27;;;-0.10;99.90;;;;;;4986332;28;20286;-66
2024/01/30 04:22:55;;;;;;;10.13;7.43;;;-0.40;99.90;;;;;;4984884;28;20207;-66
2024/01/30 04:25:22;;;;;;;19.60;9.50;;;-0.60;99.90;;;;;;4985075;28;20198;-66
2024/01/30 04:27:49;;;;;;;15.80;9.60;;;-0.40;99.90;;;;;;4992025;28;20229;-67
2024/01/30 04:30:16;;;;;;;13.53;8.83;;;-0.50;99.90;;;;;;4992212;28;20681;-66
2024/01/30 04:32:44;;;;;;;31.23;10.03;;;-0.70;99.90;;;;;;4991604;28;20213;-67
2024/01/30 04:35:11;;;;;;;28.80;9.00;;;-0.50;99.90;;;;;;4983166;28;20200;-66
2024/01/30 04:37:38;;;;;;;12.40;7.20;;;-0.90;99.90;;;;;;4977606;28;20274;-66
2024/01/30 04:40:09;;;;;;;10.30;8.23;;;-1.00;99.90;;;;;;4972961;28;20261;-67
2024/01/30 04:42:36;;;;;;;17.87;8.37;;;-0.90;99.90;;;;;;4976269;28;20679;-66
2024/01/30 04:45:03;;;;;;;10.50;8.37;;;-0.70;99.90;;;;;;4983946;28;20252;-67
2024/01/30 04:47:30;;;;;;;17.83;8.80;;;-0.90;99.90;;;;;;4992125;28;20273;-66
2024/01/30 04:49:57;;;;;;;20.23;8.43;;;-0.90;99.90;;;;;;4992197;28;20213;-65
2024/01/30 04:52:24;;;;;;;12.57;7.07;;;-0.90;99.90;;;;;;4985804;28;20633;-65
2024/01/30 04:54:51;;;;;;;10.00;7.03;;;-0.70;99.90;;;;;;4983567;28;20198;-65
2024/01/30 04:57:22;;;;;;;10.80;8.10;;;-0.90;99.90;;;;;;4992157;28;20224;-65
2024/01/30 04:59:49;;;;;;;18.23;9.57;;;-0.80;99.90;;;;;;4994110;28;20260;-65
2024/01/30 05:02:16;;;;;;;13.87;8.33;;;-0.70;99.90;;;;;;4986357;28;20206;-65
2024/01/30 05:04:43;;;;;;;10.03;8.00;;;-0.80;99.90;;;;;;4988182;28;20247;-67
2024/01/30 05:07:10;;;;;;;12.63;8.30;;;-1.10;99.90;;;;;;4976113;28;20282;-65
2024/01/30 05:09:37;;;;;;;11.43;8.67;;;-0.80;99.90;;;;;;4975977;28;20209;-65
2024/01/30 05:12:04;;;;;;;18.07;9.73;;;-0.70;99.90;;;;;;4979788;28;20203;-65
2024/01/30 05:14:33;;;;;;;23.30;9.40;;;-0.70;99.90;;;;;;4983217;28;20198;-65
2024/01/30 05:17:00;;;;;;;34.30;10.73;;;-0.90;99.90;;;;;;4977828;28;20226;-65
2024/01/30 05:19:27;;;;;;;20.80;11.43;;;-0.90;99.90;;;;;;4978896;28;20204;-65
2024/01/30 05:21:53;;;;;;;13.97;10.10;;;-0.80;99.90;;;;;;4993239;28;20211;-65
2024/01/30 05:24:20;;;;;;;13.20;9.40;;;-1.00;99.90;;;;;;4983811;28;20266;-65
2024/01/30 05:26:48;;;;;;;38.53;9.77;;;-0.60;99.90;;;;;;4975519;28;20229;-65
2024/01/30 05:29:15;;;;;;;11.00;8.00;;;-0.70;99.90;;;;;;4975676;28;20244;-65
2024/01/30 05:31:43;;;;;;;14.57;9.60;;;-1.00;99.90;;;;;;4977104;28;20206;-65
2024/01/30 05:34:10;;;;;;;11.03;8.17;;;-0.60;99.90;;;;;;4986079;28;20203;-65
2024/01/30 05:36:37;;;;;;;14.20;9.50;;;-0.70;99.90;;;;;;4989076;28;20200;-65
2024/01/30 05:39:04;;;;;;;13.53;10.17;;;-0.60;99.90;;;;;;4985464;28;20207;-65
2024/01/30 05:41:32;;;;;;;22.77;11.40;;;;;;;;;;4992233;28;20689;-65
2024/01/30 05:43:59;;;;;;;13.27;9.60;;;-0.60;99.90;;;;;;4986780;28;20200;-66
2024/01/30 05:46:26;;;;;;;34.97;12.37;;;-0.60;99.90;;;;;;4989758;28;20200;-66
2024/01/30 05:48:55;;;;;;;16.07;9.00;;;-0.60;99.90;;;;;;4992771;28;20235;-66
2024/01/30 05:51:22;;;;;;;13.70;9.87;;;-0.50;99.90;;;;;;4994391;28;20209;-65
2024/01/30 05:53:49;;;;;;;19.00;9.40;;;-0.40;99.90;;;;;;4993537;28;20210;-65
2024/01/30 05:56:16;;;;;;;17.53;9.33;;;-0.40;99.90;;;;;;4994287;28;20732;-65
2024/01/30 05:58:43;;;;;;;14.17;9.87;;;-0.40;99.90;;;;;;4992620;28;20251;-65
2024/01/30 06:01:10;;;;;;;10.40;8.53;;;-0.50;99.90;;;;;;4992621;28;20241;-65
2024/01/30 06:03:38;;;;;;;18.10;10.33;;;-0.70;99.90;;;;;;4989003;28;20267;-65
2024/01/30 06:06:07;;;;;;;10.77;8.23;;;-0.50;99.90;;;;;;4992224;28;20206;-65
2024/01/30 06:08:34;;;;;;;11.13;9.10;;;-0.40;99.90;;;;;;4988985;28;20226;-67
2024/01/30 06:11:01;;;;;;;15.70;9.53;;;-0.40;99.90;;;;;;4992259;28;20703;-65
2024/01/30 06:13:31;;;;;;;18.97;9.03;;;-0.20;99.90;;;;;;4987891;28;20276;-66
2024/01/30 06:15:58;;;;;;;10.77;8.57;;;-0.50;99.90;;;;;;4990866;28;20675;-65
2024/01/30 06:18:26;;;;;;;23.03;9.70;;;-0.30;99.90;;;;;;4990624;28;20253;-66
2024/01/30 06:20:53;;;;;;;12.03;9.77;;;-0.20;99.90;;;;;;4989453;28;20563;-65
2024/01/30 06:23:22;;;;;;;12.47;9.03;;;-0.40;99.90;;;;;;4989717;28;20204;-66
2024/01/30 06:25:49;;;;;;;15.27;9.63;;;-0.20;99.90;;;;;;4988237;28;20268;-66
2024/01/30 06:28:16;;;;;;;11.70;9.13;;;-0.10;99.90;;;;;;4980884;28;21091;-65
2024/01/30 06:30:43;;;;;;;12.93;7.03;;;-0.10;99.90;;;;;;4992313;28;20200;-64
2024/01/30 06:33:13;;;;;;;10.13;7.13;;;0.10;99.90;;;;;;4991878;28;20202;-64
2024/01/30 06:35:40;;;;;;;9.73;6.60;;;0.20;99.90;;;;;;4993221;28;20666;-65
2024/01/30 06:38:07;;;;;;;8.83;6.70;;;0.10;99.90;;;;;;4993196;28;20220;-65
2024/01/30 06:40:36;;;;;;;7.17;6.20;;;0.30;99.90;;;;;;4985418;28;20207;-63
2024/01/30 06:43:04;;;;;;;10.93;8.23;;;0.30;99.90;;;;;;4992355;28;20670;-64
2024/01/30 06:45:31;;;;;;;10.07;7.70;;;0.20;99.90;;;;;;4991900;28;20203;-63
2024/01/30 06:47:58;;;;;;;18.37;8.87;;;0.30;99.90;;;;;;4993163;28;20226;-64
2024/01/30 06:50:25;;;;;;;10.17;8.13;;;0.30;99.90;;;;;;4992846;28;20597;-64
2024/01/30 06:52:52;;;;;;;17.47;10.30;;;0.40;99.90;;;;;;4984157;28;20270;-63
2024/01/30 06:55:19;;;;;;;14.03;10.63;;;0.50;99.90;;;;;;4992742;28;20203;-64
2024/01/30 06:57:48;;;;;;;14.73;11.43;;;0.40;99.90;;;;;;4991101;28;20747;-63
2024/01/30 07:00:16;;;;;;;31.50;11.30;;;0.50;99.90;;;;;;4989209;28;20202;-64
2024/01/30 07:02:43;;;;;;;23.53;11.53;;;0.30;99.90;;;;;;4992332;28;20197;-65
2024/01/30 07:05:11;;;;;;;25.60;11.40;;;0.30;99.90;;;;;;4992692;28;20578;-64
2024/01/30 07:07:38;;;;;;;22.33;11.63;;;0.20;99.90;;;;;;4992796;28;20279;-64
2024/01/30 07:10:06;;;;;;;20.70;11.47;;;0.30;99.90;;;;;;4990350;28;20739;-64
2024/01/30 07:12:33;;;;;;;19.53;11.03;;;0.30;99.90;;;;;;4991507;28;20203;-64
2024/01/30 07:15:02;;;;;;;15.50;10.83;;;0.40;99.90;;;;;;4992601;28;20664;-64
2024/01/30 07:17:29;;;;;;;15.27;9.97;;;0.40;99.90;;;;;;4992409;28;20267;-64
2024/01/30 07:19:56;;;;;;;22.50;12.17;;;0.50;99.90;;;;;;4992154;28;20209;-64
2024/01/30 07:22:23;;;;;;;14.30;9.80;;;0.50;99.90;;;;;;4980410;28;20202;-64
2024/01/30 07:24:51;;;;;;;21.47;14.10;;;0.30;99.90;;;;;;4985014;28;20676;-64
2024/01/30 07:27:22;;;;;;;17.63;14.07;;;0.30;99.90;;;;;;4992875;28;20277;-64
2024/01/30 07:29:50;;;;;;;20.47;12.83;;;0.40;99.90;;;;;;4985717;28;20630;-64
2024/01/30 07:32:19;;;;;;;22.13;11.23;;;0.20;99.90;;;;;;4986829;28;20200;-65
2024/01/30 07:34:46;;;;;;;18.13;12.17;;;0.20;99.90;;;;;;4988896;28;20217;-64
2024/01/30 07:37:17;;;;;;;16.13;11.00;;;0.20;99.90;;;;;;4992218;28;20233;-64
2024/01/30 07:39:44;;;;;;;17.67;9.90;;;0.20;99.90;;;;;;4992367;28;20194;-64
2024/01/30 07:42:11;;;;;;;19.80;8.97;;;0.40;99.90;;;;;;4983481;28;20226;-63
2024/01/30 07:44:38;;;;;;;14.00;9.93;;;0.30;99.90;;;;;;4992069;28;20199;-64
2024/01/30 07:47:07;;;;;;;23.47;10.33;;;0.30;99.90;;;;;;4995208;28;20600;-63
2024/01/30 07:49:36;;;;;;;11.23;9.07;;;0.30;99.90;;;;;;4992159;28;20312;-64
2024/01/30 07:52:03;;;;;;;13.17;8.80;;;0.20;99.90;;;;;;4990443;28;20204;-64
2024/01/30 07:54:34;;;;;;;28.63;10.47;;;0.20;99.90;;;;;;4991604;28;20205;-64
2024/01/30 07:57:01;;;;;;;13.87;9.43;;;0.30;99.90;;;;;;4986419;28;20776;-64
2024/01/30 07:59:28;;;;;;;14.93;9.23;;;0.40;99.90;;;;;;4992049;28;20612;-64
2024/01/30 08:01:55;;;;;;;21.53;8.70;;;0.30;99.90;;;;;;4985331;28;20201;-64
2024/01/30 08:04:22;;;;;;;13.20;8.93;;;0.40;99.90;;;;;;4985375;28;20610;-64
2024/01/30 08:06:51;;;;;;;12.07;9.50;;;0.60;99.90;;;;;;4992006;28;20274;-64
2024/01/30 08:09:18;;;;;;;17.07;9.67;;;0.60;99.90;;;;;;4991834;28;20224;-64
2024/01/30 08:11:45;;;;;;;25.20;10.07;;;0.70;99.90;;;;;;4991511;28;20207;-65
2024/01/30 08:14:13;;;;;;;14.73;9.23;;;0.70;99.90;;;;;;4991894;28;20216;-63
2024/01/30 08:16:40;;;;;;;11.50;9.10;;;0.60;99.90;;;;;;4983674;28;20271;-64
2024/01/30 08:19:07;;;;;;;16.77;11.13;;;0.60;99.90;;;;;;4981120;28;20201;-64
2024/01/30 08:21:36;;;;;;;13.10;9.83;;;0.60;99.90;;;;;;4984292;28;20210;-63
2024/01/30 08:24:05;;;;;;;11.50;8.07;;;0.40;99.90;;;;;;4988115;28;20288;-63
2024/01/30 08:26:32;;;;;;;68.53;11.00;;;0.70;99.90;;;;;;4990526;28;20283;-64
2024/01/30 08:28:59;;;;;;;19.83;8.87;;;0.60;99.90;;;;;;4976532;28;20209;-64
2024/01/30 08:31:26;;;;;;;21.83;9.57;;;0.40;99.90;;;;;;4972432;28;20211;-62
2024/01/30 08:33:53;;;;;;;16.03;10.83;;;0.50;99.90;;;;;;4978867;28;20209;-63
2024/01/30 08:36:21;;;;;;;13.17;9.40;;;0.50;99.90;;;;;;4987268;28;20201;-63
2024/01/30 08:38:48;;;;;;;34.53;19.57;;;0.50;99.90;;;;;;4992888;28;20226;-64
2024/01/30 08:41:16;;;;;;;24.63;13.07;;;0.70;99.90;;;;;;4987774;28;20251;-63
2024/01/30 08:43:44;;;;;;;26.20;17.23;;;0.80;99.90;;;;;;4994978;28;20624;-63
2024/01/30 08:46:11;;;;;;;29.80;15.13;;;1.00;99.90;;;;;;4996278;28;20616;-63
2024/01/30 08:48:38;;;;;;;20.33;11.27;;;1.00;99.90;;;;;;4992801;28;20216;-64
2024/01/30 08:51:08;;;;;;;29.60;11.90;;;1.20;99.90;;;;;;4987643;28;20250;-64
2024/01/30 08:53:35;;;;;;;36.80;14.83;;;1.20;99.90;;;;;;4995040;28;20215;-63
2024/01/30 08:56:03;;;;;;;30.63;13.43;;;1.40;99.90;;;;;;4995659;28;20292;-64
2024/01/30 08:58:31;;;;;;;18.23;12.37;;;1.40;99.90;;;;;;4992655;28;20217;-64
2024/01/30 09:00:58;;;;;;;18.27;11.90;;;1.50;99.90;;;;;;4982780;28;20291;-64
2024/01/30 09:03:25;;;;;;;18.10;12.33;;;1.40;99.90;;;;;;4975048;28;20668;-64
2024/01/30 09:05:52;;;;;;;15.40;11.30;;;1.50;99.90;;;;;;4979451;28;20202;-64
2024/01/30 09:08:19;;;;;;;24.87;11.90;;;1.70;99.90;;;;;;4983894;28;20225;-64
2024/01/30 09:10:46;;;;;;;15.80;10.67;;;1.70;99.90;;;;;;4975665;28;20198;-64
2024/01/30 09:13:13;;;;;;;22.60;11.93;;;1.40;99.90;;;;;;4975786;28;20270;-63
2024/01/30 09:15:42;;;;;;;19.13;10.23;;;1.40;99.90;;;;;;4975855;28;20620;-63
2024/01/30 09:18:10;;;;;;;13.30;11.43;;;1.40;99.90;;;;;;4983253;28;20239;-63
2024/01/30 09:20:38;;;;;;;22.50;12.83;;;1.50;99.90;;;;;;4986610;28;20258;-64
2024/01/30 09:23:05;;;;;;;17.13;11.23;;;1.60;99.90;;;;;;4986869;28;20205;-64
2024/01/30 09:25:32;;;;;;;14.70;9.57;;;1.80;99.90;;;;;;4987843;28;20202;-63
2024/01/30 09:28:00;;;;;;;28.63;12.57;;;1.60;99.90;;;;;;4983806;28;20225;-64
2024/01/30 09:30:27;;;;;;;16.50;11.00;;;1.90;99.90;;;;;;4985118;28;20658;-63
2024/01/30 09:32:55;;;;;;;17.63;10.50;;;1.70;99.90;;;;;;4990044;28;20212;-64
2024/01/30 09:35:22;;;;;;;23.40;11.67;;;1.70;99.90;;;;;;4986434;28;20202;-64
2024/01/30 09:37:51;;;;;;;20.53;12.60;;;1.60;99.90;;;;;;4992807;28;20702;-64
2024/01/30 09:40:19;;;;;;;26.80;13.37;;;1.80;99.90;;;;;;4978953;28;20559;-64
2024/01/30 09:42:48;;;;;;;19.37;11.83;;;1.80;99.90;;;;;;4979101;28;20713;-64
2024/01/30 09:45:15;;;;;;;23.50;13.97;;;2.00;99.90;;;;;;4977069;28;20216;-63
2024/01/30 09:47:44;;;;;;;16.97;12.13;;;2.10;99.90;;;;;;4981008;28;20229;-64
2024/01/30 09:50:13;;;;;;;15.63;11.80;;;2.10;99.90;;;;;;4985070;28;20232;-63
2024/01/30 09:52:41;;;;;;;16.83;11.93;;;2.00;99.90;;;;;;4985168;28;20253;-63
2024/01/30 09:55:08;;;;;;;22.57;13.37;;;2.00;99.90;;;;;;4988547;28;20237;-63
2024/01/30 09:57:36;;;;;;;20.90;12.10;;;2.10;99.90;;;;;;4974896;28;20226;-62
2024/01/30 10:00:03;;;;;;;15.73;12.07;;;2.20;99.90;;;;;;4979574;28;20202;-64
2024/01/30 10:02:32;;;;;;;24.00;13.20;;;2.20;99.90;;;;;;4986917;28;20205;-63
2024/01/30 10:04:59;;;;;;;17.57;12.17;;;2.40;99.90;;;;;;4994174;28;20255;-63
2024/01/30 10:07:27;;;;;;;17.63;12.13;;;2.40;99.90;;;;;;4982126;28;20286;-63
2024/01/30 10:09:56;;;;;;;19.43;11.37;;;2.40;99.90;;;;;;4974810;28;20255;-64
2024/01/30 10:12:23;;;;;;;17.83;11.43;;;2.30;99.90;;;;;;4985636;28;20657;-64
2024/01/30 10:14:50;;;;;;;20.93;11.97;;;2.40;99.90;;;;;;4994006;28;20204;-64
2024/01/30 10:17:21;;;;;;;17.43;11.83;;;2.00;99.90;;;;;;4992055;28;20288;-64
2024/01/30 10:19:48;;;;;;;21.63;14.07;;;2.10;99.90;;;;;;4987316;28;20205;-64
2024/01/30 10:22:19;;;;;;;16.17;11.60;;;2.20;99.90;;;;;;4982066;28;20206;-64
2024/01/30 10:24:49;;;;;;;17.67;12.67;;;2.70;99.90;;;;;;4973296;28;20643;-64
2024/01/30 10:27:16;;;;;;;15.80;11.60;;;2.80;99.90;;;;;;4986452;28;21249;-64
2024/01/30 10:29:43;;;;;;;15.53;10.10;;;3.00;99.90;;;;;;4983713;28;20213;-64
2024/01/30 10:32:10;;;;;;;17.63;11.17;;;3.10;99.90;;;;;;4992619;28;20762;-64
2024/01/30 10:34:37;;;;;;;16.80;12.13;;;3.00;99.90;;;;;;4987509;28;20266;-64
2024/01/30 10:37:12;;;;;;;16.50;10.83;;;3.20;99.90;;;;;;4982450;28;20648;-64
2024/01/30 10:39:40;;;;;;;14.32;11.77;;;2.60;99.90;;;;;;4981148;28;20450;-64
2024/01/30 10:42:13;;;;;;;15.47;10.53;;;3.30;99.90;;;;;;4973598;28;20302;-64
2024/01/30 10:44:51;;;;;;;13.90;10.33;;;3.00;99.90;;;;;;4974268;28;20210;-60
2024/01/30 10:47:27;;;;;;;16.57;11.67;;;3.10;99.90;;;;;;4983270;28;20232;-61
2024/01/30 10:49:55;;;;;;;16.00;11.03;;;3.40;99.90;;;;;;4985013;28;20272;-63
2024/01/30 10:52:25;;;;;;;19.73;14.30;;;3.50;99.90;;;;;;4981448;28;20198;-65
2024/01/30 10:54:53;;;;;;;19.43;12.30;;;3.40;99.90;;;;;;4973810;28;20578;-65
2024/01/30 10:57:25;;;;;;;17.13;12.93;;;3.50;99.90;;;;;;4985816;28;20227;-64
2024/01/30 10:59:53;;;;;;;15.97;11.33;;;3.30;99.90;;;;;;4982144;28;20606;-65
2024/01/30 11:02:21;;;;;;;16.77;11.87;;;3.50;99.90;;;;;;4973014;28;20214;-64
2024/01/30 11:04:48;;;;;;;15.33;12.30;;;3.40;99.90;;;;;;4991157;28;20206;-65
2024/01/30 11:07:16;;;;;;;19.83;12.37;;;3.70;99.90;;;;;;4989671;28;20309;-65
2024/01/30 11:09:50;;;;;;;17.23;13.40;;;3.90;99.90;;;;;;4979042;28;20312;-65
2024/01/30 11:12:24;;;;;;;14.83;12.03;;;3.70;99.90;;;;;;4989462;28;20211;-65
2024/01/30 11:15:04;;;;;;;14.47;10.57;;;4.00;99.90;;;;;;4974204;28;20199;-65
2024/01/30 11:17:50;;;;;;;13.80;11.93;;;4.10;99.90;;;;;;4980566;28;20236;-70
2024/01/30 11:20:19;;;;;;;17.77;11.87;;;;;;;;;;4982198;28;20210;-65
2024/01/30 11:22:47;;;;;;;19.00;13.15;;;4.20;99.90;;;;;;4983577;28;20492;-65
2024/01/30 11:25:15;;;;;;;13.70;12.27;;;4.20;99.90;;;;;;4973687;28;20209;-65
2024/01/30 11:27:43;;;;;;;14.93;11.87;;;4.20;99.90;;;;;;4978345;28;20230;-65
2024/01/30 11:30:12;;;;;;;16.33;13.47;;;4.40;99.90;;;;;;4982613;28;20261;-66
2024/01/30 11:32:39;;;;;;;16.13;11.50;;;4.40;99.90;;;;;;4983714;28;20206;-66
2024/01/30 11:35:08;;;;;;;18.37;13.23;;;4.40;99.90;;;;;;4980279;28;20210;-65
2024/01/30 11:37:39;;;;;;;15.03;11.80;;;4.60;99.90;;;;;;4989525;28;20249;-65
2024/01/30 11:40:06;;;;;;;13.77;10.70;;;4.50;99.90;;;;;;4979708;28;20250;-65
2024/01/30 11:42:35;;;;;;;15.50;12.10;;;4.40;99.90;;;;;;4972259;28;20293;-65
2024/01/30 11:45:03;;;;;;;13.03;11.20;;;4.50;99.90;;;;;;4979437;28;20677;-65
2024/01/30 11:47:31;;;;;;;16.77;13.87;;;4.70;99.90;;;;;;4973132;28;20258;-65
2024/01/30 11:49:58;;;;;;;15.73;11.27;;;4.70;99.90;;;;;;4980985;28;20221;-65
2024/01/30 11:52:25;;;;;;;13.70;10.67;;;5.00;99.90;;;;;;4972323;28;20248;-65
2024/01/30 11:54:52;;;;;;;12.90;10.67;;;5.10;99.90;;;;;;4972814;28;20668;-65
2024/01/30 11:57:19;;;;;;;12.70;10.03;;;5.40;99.90;;;;;;4991702;28;20280;-65
2024/01/30 11:59:46;;;;;;;12.37;9.73;;;5.40;99.90;;;;;;4990542;28;20625;-65
2024/01/30 12:02:20;;;;;;;11.90;9.33;;;5.70;99.90;;;;;;4984848;28;20267;-66
2024/01/30 12:04:49;;;;;;;13.70;11.17;;;5.10;99.90;;;;;;4985282;28;20209;-66
2024/01/30 12:07:20;;;;;;;32.43;16.73;;;5.10;99.90;;;;;;4983198;28;20226;-65
2024/01/30 12:09:54;;;;;;;15.33;10.13;;;5.20;99.90;;;;;;4977623;28;20302;-65
2024/01/30 12:12:22;;;;;;;13.13;9.90;;;5.30;99.90;;;;;;4972157;28;20282;-65
2024/01/30 12:14:49;;;;;;;10.00;8.97;;;5.40;99.90;;;;;;4974311;28;20269;-65
2024/01/30 12:17:28;;;;;;;18.30;10.97;;;5.30;99.90;;;;;;4973442;28;20236;-65
2024/01/30 12:20:06;;;;;;;13.33;10.40;;;5.10;99.90;;;;;;4974463;28;20252;-66
2024/01/30 12:22:34;;;;;;;11.00;9.90;;;5.10;99.90;;;;;;4984753;28;20215;-65
2024/01/30 12:25:01;;;;;;;12.20;10.73;;;5.30;99.90;;;;;;4986763;28;20209;-65
2024/01/30 12:27:28;;;;;;;13.13;10.57;;;5.20;99.90;;;;;;4975241;28;20301;-66
2024/01/30 12:29:59;;;;;;;13.30;10.73;;;5.40;99.90;;;;;;4971519;28;20277;-65
2024/01/30 12:32:25;;;;;;;14.57;10.50;;;5.40;99.90;;;;;;4971111;28;20231;-66
2024/01/30 12:34:56;;;;;;;15.80;10.93;;;5.50;99.90;;;;;;4972084;28;20202;-65
2024/01/30 12:37:25;;;;;;;13.63;10.67;;;5.50;99.90;;;;;;4973852;28;20227;-65
2024/01/30 12:39:53;;;;;;;16.80;10.33;;;5.60;99.90;;;;;;4974589;28;20208;-65
2024/01/30 12:42:24;;;;;;;13.43;10.50;;;5.60;99.90;;;;;;4971626;28;20294;-65
2024/01/30 12:44:51;;;;;;;16.10;12.23;;;5.70;99.90;;;;;;4972282;28;20202;-65
2024/01/30 12:47:22;;;;;;;12.17;9.60;;;5.70;99.90;;;;;;4972334;28;20275;-65